sensor_id;sensor_type;location;lat;lon;timestamp;P1;durP1;ratioP1;P2;durP2;ratioP2
60038;SDS011;45916;52.734;6.544;2023-06-19T00:02:06;12.07;;;10.85;;
60038;SDS011;45916;52.734;6.544;2023-06-19T00:04:32;13.07;;;11.85;;
60038;SDS011;45916;52.734;6.544;2023-06-19T00:06:59;12.25;;;11.05;;
60038;SDS011;45916;52.734;6.544;2023-06-19T00:09:25;11.57;;;10.32;;
60038;SDS011;45916;52.734;6.544;2023-06-19T00:11:51;12.45;;;11.15;;
60038;SDS011;45916;52.734;6.544;2023-06-19T00:14:16;12.20;;;10.82;;
60038;SDS011;45916;52.734;6.544;2023-06-19T00:16:43;12.57;;;11.27;;
60038;SDS011;45916;52.734;6.544;2023-06-19T00:19:09;11.77;;;10.18;;
60038;SDS011;45916;52.734;6.544;2023-06-19T00:21:35;15.23;;;11.15;;
60038;SDS011;45916;52.734;6.544;2023-06-19T00:24:02;12.15;;;10.95;;
60038;SDS011;45916;52.734;6.544;2023-06-19T00:26:28;11.80;;;10.65;;
60038;SDS011;45916;52.734;6.544;2023-06-19T00:28:54;11.68;;;10.27;;
60038;SDS011;45916;52.734;6.544;2023-06-19T00:31:20;11.68;;;10.45;;
60038;SDS011;45916;52.734;6.544;2023-06-19T00:33:45;12.55;;;11.35;;
60038;SDS011;45916;52.734;6.544;2023-06-19T00:36:14;12.25;;;11.02;;
60038;SDS011;45916;52.734;6.544;2023-06-19T00:41:07;11.38;;;10.25;;
60038;SDS011;45916;52.734;6.544;2023-06-19T00:43:33;11.70;;;10.57;;
60038;SDS011;45916;52.734;6.544;2023-06-19T00:45:59;12.73;;;11.15;;
60038;SDS011;45916;52.734;6.544;2023-06-19T00:48:26;12.48;;;10.95;;
60038;SDS011;45916;52.734;6.544;2023-06-19T00:50:53;13.38;;;12.05;;
60038;SDS011;45916;52.734;6.544;2023-06-19T00:53:21;11.93;;;10.73;;
60038;SDS011;45916;52.734;6.544;2023-06-19T00:55:48;12.60;;;11.30;;
60038;SDS011;45916;52.734;6.544;2023-06-19T00:58:17;12.77;;;11.13;;
60038;SDS011;45916;52.734;6.544;2023-06-19T01:00:43;13.18;;;11.60;;
60038;SDS011;45916;52.734;6.544;2023-06-19T01:03:09;12.60;;;11.40;;
60038;SDS011;45916;52.734;6.544;2023-06-19T01:05:34;12.85;;;11.40;;
60038;SDS011;45916;52.734;6.544;2023-06-19T01:08:03;12.48;;;11.20;;
60038;SDS011;45916;52.734;6.544;2023-06-19T01:10:32;12.20;;;10.90;;
60038;SDS011;45916;52.734;6.544;2023-06-19T01:13:08;12.95;;;10.73;;
60038;SDS011;45916;52.734;6.544;2023-06-19T01:15:56;13.15;;;11.85;;
60038;SDS011;45916;52.734;6.544;2023-06-19T01:18:23;12.88;;;11.57;;
60038;SDS011;45916;52.734;6.544;2023-06-19T01:20:50;12.88;;;11.60;;
60038;SDS011;45916;52.734;6.544;2023-06-19T01:23:16;13.05;;;11.75;;
60038;SDS011;45916;52.734;6.544;2023-06-19T01:25:42;13.02;;;11.57;;
60038;SDS011;45916;52.734;6.544;2023-06-19T01:28:09;13.32;;;11.95;;
60038;SDS011;45916;52.734;6.544;2023-06-19T01:30:37;13.88;;;12.38;;
60038;SDS011;45916;52.734;6.544;2023-06-19T01:33:15;12.50;;;11.30;;
60038;SDS011;45916;52.734;6.544;2023-06-19T01:35:45;13.38;;;12.13;;
60038;SDS011;45916;52.734;6.544;2023-06-19T01:38:12;12.75;;;11.40;;
60038;SDS011;45916;52.734;6.544;2023-06-19T01:40:39;12.38;;;11.18;;
60038;SDS011;45916;52.734;6.544;2023-06-19T01:43:06;12.48;;;11.27;;
60038;SDS011;45916;52.734;6.544;2023-06-19T01:45:33;14.37;;;12.87;;
60038;SDS011;45916;52.734;6.544;2023-06-19T01:47:59;13.23;;;11.93;;
60038;SDS011;45916;52.734;6.544;2023-06-19T01:50:25;14.07;;;12.65;;
60038;SDS011;45916;52.734;6.544;2023-06-19T01:52:51;12.43;;;11.13;;
60038;SDS011;45916;52.734;6.544;2023-06-19T01:55:17;13.15;;;11.77;;
60038;SDS011;45916;52.734;6.544;2023-06-19T01:57:44;12.57;;;11.30;;
60038;SDS011;45916;52.734;6.544;2023-06-19T02:00:11;13.75;;;12.35;;
60038;SDS011;45916;52.734;6.544;2023-06-19T02:02:37;13.00;;;11.70;;
60038;SDS011;45916;52.734;6.544;2023-06-19T02:05:02;12.90;;;11.60;;
60038;SDS011;45916;52.734;6.544;2023-06-19T02:07:29;13.82;;;11.15;;
60038;SDS011;45916;52.734;6.544;2023-06-19T02:09:55;12.57;;;11.20;;
60038;SDS011;45916;52.734;6.544;2023-06-19T02:12:21;13.73;;;12.30;;
60038;SDS011;45916;52.734;6.544;2023-06-19T02:14:47;12.90;;;11.40;;
60038;SDS011;45916;52.734;6.544;2023-06-19T02:17:13;12.60;;;11.15;;
60038;SDS011;45916;52.734;6.544;2023-06-19T02:19:39;12.27;;;10.95;;
60038;SDS011;45916;52.734;6.544;2023-06-19T02:22:05;12.73;;;11.15;;
60038;SDS011;45916;52.734;6.544;2023-06-19T02:24:31;12.38;;;11.18;;
60038;SDS011;45916;52.734;6.544;2023-06-19T02:26:57;12.55;;;11.18;;
60038;SDS011;45916;52.734;6.544;2023-06-19T02:29:24;12.25;;;10.95;;
60038;SDS011;45916;52.734;6.544;2023-06-19T02:31:50;12.55;;;11.23;;
60038;SDS011;45916;52.734;6.544;2023-06-19T02:34:16;13.65;;;11.60;;
60038;SDS011;45916;52.734;6.544;2023-06-19T02:36:42;12.50;;;11.30;;
60038;SDS011;45916;52.734;6.544;2023-06-19T02:39:08;12.57;;;10.40;;
60038;SDS011;45916;52.734;6.544;2023-06-19T02:41:34;11.80;;;10.65;;
60038;SDS011;45916;52.734;6.544;2023-06-19T02:44:01;18.27;;;11.77;;
60038;SDS011;45916;52.734;6.544;2023-06-19T02:46:26;13.38;;;11.35;;
60038;SDS011;45916;52.734;6.544;2023-06-19T02:48:52;13.65;;;11.30;;
60038;SDS011;45916;52.734;6.544;2023-06-19T02:51:18;19.20;;;12.32;;
60038;SDS011;45916;52.734;6.544;2023-06-19T02:53:43;15.82;;;12.02;;
60038;SDS011;45916;52.734;6.544;2023-06-19T02:56:10;18.88;;;12.65;;
60038;SDS011;45916;52.734;6.544;2023-06-19T02:58:36;13.02;;;10.80;;
60038;SDS011;45916;52.734;6.544;2023-06-19T03:01:03;15.13;;;12.05;;
60038;SDS011;45916;52.734;6.544;2023-06-19T03:03:29;15.15;;;11.40;;
60038;SDS011;45916;52.734;6.544;2023-06-19T03:05:55;17.92;;;12.18;;
60038;SDS011;45916;52.734;6.544;2023-06-19T03:08:21;10.98;;;9.80;;
60038;SDS011;45916;52.734;6.544;2023-06-19T03:10:47;15.60;;;11.30;;
60038;SDS011;45916;52.734;6.544;2023-06-19T03:13:13;13.63;;;10.32;;
60038;SDS011;45916;52.734;6.544;2023-06-19T03:15:39;16.50;;;10.55;;
60038;SDS011;45916;52.734;6.544;2023-06-19T03:18:04;14.48;;;10.98;;
60038;SDS011;45916;52.734;6.544;2023-06-19T03:20:32;15.15;;;11.13;;
60038;SDS011;45916;52.734;6.544;2023-06-19T03:22:58;13.63;;;10.68;;
60038;SDS011;45916;52.734;6.544;2023-06-19T03:25:24;32.17;;;13.18;;
60038;SDS011;45916;52.734;6.544;2023-06-19T03:27:49;15.27;;;11.07;;
60038;SDS011;45916;52.734;6.544;2023-06-19T03:30:15;16.48;;;10.27;;
60038;SDS011;45916;52.734;6.544;2023-06-19T03:35:09;13.85;;;10.15;;
60038;SDS011;45916;52.734;6.544;2023-06-19T03:37:35;14.27;;;11.40;;
60038;SDS011;45916;52.734;6.544;2023-06-19T03:40:01;16.27;;;9.88;;
60038;SDS011;45916;52.734;6.544;2023-06-19T03:42:28;22.08;;;11.25;;
60038;SDS011;45916;52.734;6.544;2023-06-19T03:44:54;16.70;;;10.30;;
60038;SDS011;45916;52.734;6.544;2023-06-19T03:47:20;13.95;;;10.32;;
60038;SDS011;45916;52.734;6.544;2023-06-19T03:49:46;17.13;;;10.10;;
60038;SDS011;45916;52.734;6.544;2023-06-19T03:52:13;9.13;;;6.72;;
60038;SDS011;45916;52.734;6.544;2023-06-19T03:54:39;10.20;;;7.15;;
60038;SDS011;45916;52.734;6.544;2023-06-19T03:57:05;10.43;;;6.03;;
60038;SDS011;45916;52.734;6.544;2023-06-19T03:59:31;9.93;;;5.20;;
60038;SDS011;45916;52.734;6.544;2023-06-19T04:01:57;12.38;;;6.43;;
60038;SDS011;45916;52.734;6.544;2023-06-19T04:04:23;12.32;;;5.03;;
60038;SDS011;45916;52.734;6.544;2023-06-19T04:06:49;7.63;;;4.90;;
60038;SDS011;45916;52.734;6.544;2023-06-19T04:09:14;9.00;;;5.22;;
60038;SDS011;45916;52.734;6.544;2023-06-19T04:11:41;7.78;;;5.32;;
60038;SDS011;45916;52.734;6.544;2023-06-19T04:14:06;12.52;;;5.10;;
60038;SDS011;45916;52.734;6.544;2023-06-19T04:16:32;12.82;;;5.70;;
60038;SDS011;45916;52.734;6.544;2023-06-19T04:18:58;9.30;;;5.00;;
60038;SDS011;45916;52.734;6.544;2023-06-19T04:21:23;8.88;;;5.45;;
60038;SDS011;45916;52.734;6.544;2023-06-19T04:23:51;8.65;;;4.88;;
60038;SDS011;45916;52.734;6.544;2023-06-19T04:26:16;9.10;;;4.82;;
60038;SDS011;45916;52.734;6.544;2023-06-19T04:28:43;8.88;;;5.10;;
60038;SDS011;45916;52.734;6.544;2023-06-19T04:31:08;11.27;;;4.95;;
60038;SDS011;45916;52.734;6.544;2023-06-19T04:33:34;8.07;;;4.53;;
60038;SDS011;45916;52.734;6.544;2023-06-19T04:36:00;9.77;;;4.60;;
60038;SDS011;45916;52.734;6.544;2023-06-19T04:38:26;8.25;;;4.53;;
60038;SDS011;45916;52.734;6.544;2023-06-19T04:40:52;7.22;;;4.10;;
60038;SDS011;45916;52.734;6.544;2023-06-19T04:43:18;10.35;;;4.68;;
60038;SDS011;45916;52.734;6.544;2023-06-19T04:45:44;10.23;;;5.32;;
60038;SDS011;45916;52.734;6.544;2023-06-19T04:48:10;10.70;;;5.32;;
60038;SDS011;45916;52.734;6.544;2023-06-19T04:50:36;7.50;;;4.72;;
60038;SDS011;45916;52.734;6.544;2023-06-19T04:53:02;9.55;;;5.40;;
60038;SDS011;45916;52.734;6.544;2023-06-19T04:55:28;7.50;;;5.45;;
60038;SDS011;45916;52.734;6.544;2023-06-19T04:57:54;8.90;;;5.75;;
60038;SDS011;45916;52.734;6.544;2023-06-19T05:00:20;7.22;;;5.13;;
60038;SDS011;45916;52.734;6.544;2023-06-19T05:02:46;6.93;;;4.45;;
60038;SDS011;45916;52.734;6.544;2023-06-19T05:05:13;7.88;;;4.97;;
60038;SDS011;45916;52.734;6.544;2023-06-19T05:07:38;7.95;;;4.97;;
60038;SDS011;45916;52.734;6.544;2023-06-19T05:10:05;7.32;;;5.15;;
60038;SDS011;45916;52.734;6.544;2023-06-19T05:12:31;7.18;;;5.30;;
60038;SDS011;45916;52.734;6.544;2023-06-19T05:14:57;7.78;;;5.28;;
60038;SDS011;45916;52.734;6.544;2023-06-19T05:17:23;12.15;;;5.35;;
60038;SDS011;45916;52.734;6.544;2023-06-19T05:19:48;9.23;;;5.47;;
60038;SDS011;45916;52.734;6.544;2023-06-19T05:22:14;8.70;;;7.03;;
60038;SDS011;45916;52.734;6.544;2023-06-19T05:24:40;7.82;;;5.10;;
60038;SDS011;45916;52.734;6.544;2023-06-19T05:27:06;7.50;;;5.35;;
60038;SDS011;45916;52.734;6.544;2023-06-19T05:29:32;10.50;;;5.38;;
60038;SDS011;45916;52.734;6.544;2023-06-19T05:31:57;9.70;;;5.30;;
60038;SDS011;45916;52.734;6.544;2023-06-19T05:34:23;9.27;;;5.28;;
60038;SDS011;45916;52.734;6.544;2023-06-19T05:36:49;7.75;;;5.22;;
60038;SDS011;45916;52.734;6.544;2023-06-19T05:39:14;7.70;;;4.85;;
60038;SDS011;45916;52.734;6.544;2023-06-19T05:41:40;6.75;;;5.50;;
60038;SDS011;45916;52.734;6.544;2023-06-19T05:44:06;6.18;;;4.57;;
60038;SDS011;45916;52.734;6.544;2023-06-19T05:46:32;8.32;;;5.88;;
60038;SDS011;45916;52.734;6.544;2023-06-19T05:48:57;8.77;;;5.38;;
60038;SDS011;45916;52.734;6.544;2023-06-19T05:51:23;10.27;;;5.75;;
60038;SDS011;45916;52.734;6.544;2023-06-19T05:53:49;7.53;;;4.97;;
60038;SDS011;45916;52.734;6.544;2023-06-19T05:56:15;9.60;;;5.40;;
60038;SDS011;45916;52.734;6.544;2023-06-19T05:58:41;7.55;;;5.20;;
60038;SDS011;45916;52.734;6.544;2023-06-19T06:01:07;7.97;;;5.75;;
60038;SDS011;45916;52.734;6.544;2023-06-19T06:03:33;10.68;;;5.65;;
60038;SDS011;45916;52.734;6.544;2023-06-19T06:05:58;8.07;;;5.50;;
60038;SDS011;45916;52.734;6.544;2023-06-19T06:08:28;11.80;;;5.75;;
60038;SDS011;45916;52.734;6.544;2023-06-19T06:10:54;17.13;;;6.95;;
60038;SDS011;45916;52.734;6.544;2023-06-19T06:13:20;9.07;;;5.38;;
60038;SDS011;45916;52.734;6.544;2023-06-19T06:15:46;11.82;;;6.85;;
60038;SDS011;45916;52.734;6.544;2023-06-19T06:18:12;9.93;;;6.57;;
60038;SDS011;45916;52.734;6.544;2023-06-19T06:20:37;10.30;;;6.05;;
60038;SDS011;45916;52.734;6.544;2023-06-19T06:23:03;9.07;;;6.65;;
60038;SDS011;45916;52.734;6.544;2023-06-19T06:25:29;8.05;;;6.82;;
60038;SDS011;45916;52.734;6.544;2023-06-19T06:27:55;8.35;;;7.00;;
60038;SDS011;45916;52.734;6.544;2023-06-19T06:30:21;10.65;;;7.03;;
60038;SDS011;45916;52.734;6.544;2023-06-19T06:32:47;8.55;;;7.57;;
60038;SDS011;45916;52.734;6.544;2023-06-19T06:35:13;10.75;;;7.68;;
60038;SDS011;45916;52.734;6.544;2023-06-19T06:37:39;10.00;;;7.80;;
60038;SDS011;45916;52.734;6.544;2023-06-19T06:40:06;9.82;;;7.43;;
60038;SDS011;45916;52.734;6.544;2023-06-19T06:42:36;9.27;;;7.82;;
60038;SDS011;45916;52.734;6.544;2023-06-19T06:45:03;11.40;;;9.05;;
60038;SDS011;45916;52.734;6.544;2023-06-19T06:47:33;12.18;;;9.38;;
60038;SDS011;45916;52.734;6.544;2023-06-19T06:50:01;10.98;;;9.27;;
60038;SDS011;45916;52.734;6.544;2023-06-19T06:52:27;10.80;;;9.23;;
60038;SDS011;45916;52.734;6.544;2023-06-19T06:54:55;10.88;;;9.63;;
60038;SDS011;45916;52.734;6.544;2023-06-19T06:57:21;10.95;;;8.93;;
60038;SDS011;45916;52.734;6.544;2023-06-19T06:59:46;10.50;;;9.48;;
60038;SDS011;45916;52.734;6.544;2023-06-19T07:02:12;11.40;;;9.30;;
60038;SDS011;45916;52.734;6.544;2023-06-19T07:04:38;10.60;;;9.32;;
60038;SDS011;45916;52.734;6.544;2023-06-19T07:07:03;9.43;;;8.13;;
60038;SDS011;45916;52.734;6.544;2023-06-19T07:09:31;12.27;;;9.07;;
60038;SDS011;45916;52.734;6.544;2023-06-19T07:11:56;10.10;;;9.00;;
60038;SDS011;45916;52.734;6.544;2023-06-19T07:14:22;10.63;;;9.52;;
60038;SDS011;45916;52.734;6.544;2023-06-19T07:16:48;11.88;;;9.35;;
60038;SDS011;45916;52.734;6.544;2023-06-19T07:19:15;11.67;;;9.83;;
60038;SDS011;45916;52.734;6.544;2023-06-19T07:21:41;11.65;;;9.23;;
60038;SDS011;45916;52.734;6.544;2023-06-19T07:24:07;11.07;;;9.93;;
60038;SDS011;45916;52.734;6.544;2023-06-19T07:26:33;11.02;;;9.15;;
60038;SDS011;45916;52.734;6.544;2023-06-19T07:29:00;11.25;;;8.77;;
60038;SDS011;45916;52.734;6.544;2023-06-19T07:31:26;11.10;;;10.00;;
60038;SDS011;45916;52.734;6.544;2023-06-19T07:33:51;10.82;;;9.68;;
60038;SDS011;45916;52.734;6.544;2023-06-19T07:36:17;10.68;;;9.68;;
60038;SDS011;45916;52.734;6.544;2023-06-19T07:38:43;11.85;;;10.27;;
60038;SDS011;45916;52.734;6.544;2023-06-19T07:41:09;11.65;;;9.70;;
60038;SDS011;45916;52.734;6.544;2023-06-19T07:43:36;14.68;;;10.25;;
60038;SDS011;45916;52.734;6.544;2023-06-19T07:46:02;12.32;;;10.60;;
60038;SDS011;45916;52.734;6.544;2023-06-19T07:48:28;12.57;;;11.38;;
60038;SDS011;45916;52.734;6.544;2023-06-19T07:50:54;13.63;;;12.23;;
60038;SDS011;45916;52.734;6.544;2023-06-19T07:53:19;13.05;;;11.65;;
60038;SDS011;45916;52.734;6.544;2023-06-19T07:55:45;11.00;;;9.90;;
60038;SDS011;45916;52.734;6.544;2023-06-19T07:58:11;10.73;;;9.57;;
60038;SDS011;45916;52.734;6.544;2023-06-19T08:00:36;11.75;;;10.55;;
60038;SDS011;45916;52.734;6.544;2023-06-19T08:03:02;11.90;;;10.70;;
60038;SDS011;45916;52.734;6.544;2023-06-19T08:05:28;12.98;;;11.57;;
60038;SDS011;45916;52.734;6.544;2023-06-19T08:07:54;14.95;;;11.70;;
60038;SDS011;45916;52.734;6.544;2023-06-19T08:10:19;13.88;;;12.40;;
60038;SDS011;45916;52.734;6.544;2023-06-19T08:12:45;12.52;;;11.32;;
60038;SDS011;45916;52.734;6.544;2023-06-19T08:15:11;12.40;;;11.15;;
60038;SDS011;45916;52.734;6.544;2023-06-19T08:17:40;11.57;;;10.38;;
60038;SDS011;45916;52.734;6.544;2023-06-19T08:20:07;16.50;;;10.93;;
60038;SDS011;45916;52.734;6.544;2023-06-19T08:22:33;12.38;;;10.77;;
60038;SDS011;45916;52.734;6.544;2023-06-19T08:24:59;11.68;;;10.40;;
60038;SDS011;45916;52.734;6.544;2023-06-19T08:27:25;12.02;;;10.82;;
60038;SDS011;45916;52.734;6.544;2023-06-19T08:29:51;13.13;;;11.73;;
60038;SDS011;45916;52.734;6.544;2023-06-19T08:32:16;13.85;;;12.40;;
60038;SDS011;45916;52.734;6.544;2023-06-19T08:34:42;14.38;;;12.90;;
60038;SDS011;45916;52.734;6.544;2023-06-19T08:37:08;14.55;;;13.15;;
60038;SDS011;45916;52.734;6.544;2023-06-19T08:39:34;16.73;;;15.13;;
60038;SDS011;45916;52.734;6.544;2023-06-19T08:42:03;17.00;;;15.50;;
60038;SDS011;45916;52.734;6.544;2023-06-19T08:44:33;17.58;;;15.93;;
60038;SDS011;45916;52.734;6.544;2023-06-19T08:47:00;16.10;;;14.60;;
60038;SDS011;45916;52.734;6.544;2023-06-19T08:49:30;15.23;;;13.63;;
60038;SDS011;45916;52.734;6.544;2023-06-19T08:51:58;15.18;;;12.95;;
60038;SDS011;45916;52.734;6.544;2023-06-19T08:54:24;12.80;;;11.40;;
60038;SDS011;45916;52.734;6.544;2023-06-19T08:56:50;13.68;;;12.38;;
60038;SDS011;45916;52.734;6.544;2023-06-19T08:59:19;13.35;;;11.98;;
60038;SDS011;45916;52.734;6.544;2023-06-19T09:01:49;13.25;;;11.88;;
60038;SDS011;45916;52.734;6.544;2023-06-19T09:04:19;13.82;;;11.90;;
60038;SDS011;45916;52.734;6.544;2023-06-19T09:09:13;11.05;;;9.02;;
60038;SDS011;45916;52.734;6.544;2023-06-19T09:11:40;11.90;;;9.97;;
60038;SDS011;45916;52.734;6.544;2023-06-19T09:14:09;12.35;;;11.15;;
60038;SDS011;45916;52.734;6.544;2023-06-19T09:16:39;12.82;;;10.45;;
60038;SDS011;45916;52.734;6.544;2023-06-19T09:19:06;11.77;;;10.68;;
60038;SDS011;45916;52.734;6.544;2023-06-19T09:21:34;12.15;;;10.65;;
60038;SDS011;45916;52.734;6.544;2023-06-19T09:24:02;11.68;;;10.43;;
60038;SDS011;45916;52.734;6.544;2023-06-19T09:26:32;12.57;;;11.30;;
60038;SDS011;45916;52.734;6.544;2023-06-19T09:28:58;10.75;;;9.65;;
60038;SDS011;45916;52.734;6.544;2023-06-19T09:31:35;11.52;;;10.52;;
60038;SDS011;45916;52.734;6.544;2023-06-19T09:34:02;12.65;;;11.25;;
60038;SDS011;45916;52.734;6.544;2023-06-19T09:36:28;11.32;;;10.32;;
60038;SDS011;45916;52.734;6.544;2023-06-19T09:38:57;12.73;;;11.10;;
60038;SDS011;45916;52.734;6.544;2023-06-19T09:41:25;11.38;;;10.20;;
60038;SDS011;45916;52.734;6.544;2023-06-19T09:43:53;11.07;;;10.00;;
60038;SDS011;45916;52.734;6.544;2023-06-19T09:46:34;11.05;;;9.60;;
60038;SDS011;45916;52.734;6.544;2023-06-19T09:49:02;11.68;;;9.43;;
60038;SDS011;45916;52.734;6.544;2023-06-19T09:51:32;11.75;;;9.02;;
60038;SDS011;45916;52.734;6.544;2023-06-19T09:54:02;10.93;;;8.45;;
60038;SDS011;45916;52.734;6.544;2023-06-19T09:56:30;11.10;;;8.55;;
60038;SDS011;45916;52.734;6.544;2023-06-19T09:58:57;10.80;;;8.90;;
60038;SDS011;45916;52.734;6.544;2023-06-19T10:01:26;12.18;;;9.55;;
60038;SDS011;45916;52.734;6.544;2023-06-19T10:04:03;10.00;;;8.43;;
60038;SDS011;45916;52.734;6.544;2023-06-19T10:06:41;11.23;;;9.30;;
60038;SDS011;45916;52.734;6.544;2023-06-19T10:09:11;12.60;;;10.55;;
60038;SDS011;45916;52.734;6.544;2023-06-19T10:14:22;14.52;;;11.73;;
60038;SDS011;45916;52.734;6.544;2023-06-19T10:16:49;14.60;;;13.05;;
60038;SDS011;45916;52.734;6.544;2023-06-19T10:19:15;14.15;;;12.68;;
60038;SDS011;45916;52.734;6.544;2023-06-19T10:21:50;14.70;;;12.43;;
60038;SDS011;45916;52.734;6.544;2023-06-19T10:24:19;13.73;;;11.55;;
60038;SDS011;45916;52.734;6.544;2023-06-19T10:27:01;13.27;;;11.60;;
60038;SDS011;45916;52.734;6.544;2023-06-19T10:29:37;14.63;;;11.98;;
60038;SDS011;45916;52.734;6.544;2023-06-19T10:32:04;13.03;;;11.63;;
60038;SDS011;45916;52.734;6.544;2023-06-19T10:34:34;13.25;;;9.80;;
60038;SDS011;45916;52.734;6.544;2023-06-19T10:37:00;11.30;;;9.70;;
60038;SDS011;45916;52.734;6.544;2023-06-19T10:39:26;9.20;;;8.05;;
60038;SDS011;45916;52.734;6.544;2023-06-19T10:41:52;14.13;;;8.73;;
60038;SDS011;45916;52.734;6.544;2023-06-19T10:44:18;11.80;;;9.25;;
60038;SDS011;45916;52.734;6.544;2023-06-19T10:46:43;13.05;;;8.75;;
60038;SDS011;45916;52.734;6.544;2023-06-19T10:49:10;11.20;;;10.02;;
60038;SDS011;45916;52.734;6.544;2023-06-19T10:51:37;12.65;;;9.95;;
60038;SDS011;45916;52.734;6.544;2023-06-19T10:54:04;10.98;;;9.40;;
60038;SDS011;45916;52.734;6.544;2023-06-19T10:56:30;10.15;;;8.88;;
60038;SDS011;45916;52.734;6.544;2023-06-19T10:58:56;11.07;;;9.55;;
60038;SDS011;45916;52.734;6.544;2023-06-19T11:01:35;10.07;;;9.07;;
60038;SDS011;45916;52.734;6.544;2023-06-19T11:04:07;11.27;;;10.00;;
60038;SDS011;45916;52.734;6.544;2023-06-19T11:06:35;11.23;;;9.57;;
60038;SDS011;45916;52.734;6.544;2023-06-19T11:09:02;11.60;;;10.43;;
60038;SDS011;45916;52.734;6.544;2023-06-19T11:14:04;15.10;;;10.15;;
60038;SDS011;45916;52.734;6.544;2023-06-19T11:16:30;12.63;;;11.15;;
60038;SDS011;45916;52.734;6.544;2023-06-19T11:18:57;14.23;;;11.48;;
60038;SDS011;45916;52.734;6.544;2023-06-19T11:21:31;13.50;;;12.20;;
60038;SDS011;45916;52.734;6.544;2023-06-19T11:24:04;16.48;;;11.63;;
60038;SDS011;45916;52.734;6.544;2023-06-19T11:26:37;12.90;;;11.43;;
60038;SDS011;45916;52.734;6.544;2023-06-19T11:29:23;12.52;;;11.00;;
60038;SDS011;45916;52.734;6.544;2023-06-19T11:32:07;15.55;;;11.05;;
60038;SDS011;45916;52.734;6.544;2023-06-19T11:34:36;13.25;;;11.05;;
60038;SDS011;45916;52.734;6.544;2023-06-19T11:37:02;13.32;;;11.93;;
60038;SDS011;45916;52.734;6.544;2023-06-19T11:39:37;12.02;;;10.75;;
60038;SDS011;45916;52.734;6.544;2023-06-19T11:42:03;15.05;;;13.52;;
60038;SDS011;45916;52.734;6.544;2023-06-19T11:44:29;13.73;;;11.88;;
60038;SDS011;45916;52.734;6.544;2023-06-19T11:46:58;13.73;;;12.18;;
60038;SDS011;45916;52.734;6.544;2023-06-19T11:49:25;14.38;;;12.85;;
60038;SDS011;45916;52.734;6.544;2023-06-19T11:51:50;14.48;;;12.98;;
60038;SDS011;45916;52.734;6.544;2023-06-19T11:54:16;15.23;;;12.57;;
60038;SDS011;45916;52.734;6.544;2023-06-19T11:56:45;16.23;;;12.45;;
60038;SDS011;45916;52.734;6.544;2023-06-19T11:59:12;13.77;;;12.32;;
60038;SDS011;45916;52.734;6.544;2023-06-19T12:01:39;15.45;;;13.25;;
60038;SDS011;45916;52.734;6.544;2023-06-19T12:04:05;14.75;;;13.25;;
60038;SDS011;45916;52.734;6.544;2023-06-19T12:06:31;14.05;;;12.65;;
60038;SDS011;45916;52.734;6.544;2023-06-19T12:08:57;14.20;;;12.45;;
60038;SDS011;45916;52.734;6.544;2023-06-19T12:11:22;15.40;;;13.95;;
60038;SDS011;45916;52.734;6.544;2023-06-19T12:13:49;15.05;;;13.52;;
60038;SDS011;45916;52.734;6.544;2023-06-19T12:16:15;16.35;;;13.98;;
60038;SDS011;45916;52.734;6.544;2023-06-19T12:18:41;16.48;;;14.77;;
60038;SDS011;45916;52.734;6.544;2023-06-19T12:21:07;15.98;;;14.35;;
60038;SDS011;45916;52.734;6.544;2023-06-19T12:23:33;14.63;;;13.15;;
60038;SDS011;45916;52.734;6.544;2023-06-19T12:25:59;15.73;;;14.23;;
60038;SDS011;45916;52.734;6.544;2023-06-19T12:28:25;16.40;;;14.70;;
60038;SDS011;45916;52.734;6.544;2023-06-19T12:30:51;16.75;;;14.73;;
60038;SDS011;45916;52.734;6.544;2023-06-19T12:33:18;16.02;;;14.38;;
60038;SDS011;45916;52.734;6.544;2023-06-19T12:38:11;15.98;;;14.30;;
60038;SDS011;45916;52.734;6.544;2023-06-19T12:40:37;16.90;;;15.30;;
60038;SDS011;45916;52.734;6.544;2023-06-19T12:43:03;17.60;;;14.55;;
60038;SDS011;45916;52.734;6.544;2023-06-19T12:45:29;15.45;;;13.85;;
60038;SDS011;45916;52.734;6.544;2023-06-19T12:47:55;16.17;;;14.57;;
60038;SDS011;45916;52.734;6.544;2023-06-19T12:50:21;16.50;;;14.25;;
60038;SDS011;45916;52.734;6.544;2023-06-19T12:52:47;17.13;;;15.40;;
60038;SDS011;45916;52.734;6.544;2023-06-19T12:55:13;16.75;;;14.13;;
60038;SDS011;45916;52.734;6.544;2023-06-19T12:57:39;15.88;;;14.30;;
60038;SDS011;45916;52.734;6.544;2023-06-19T13:00:07;17.83;;;15.93;;
60038;SDS011;45916;52.734;6.544;2023-06-19T13:02:35;23.75;;;15.63;;
60038;SDS011;45916;52.734;6.544;2023-06-19T13:05:01;16.85;;;15.05;;
60038;SDS011;45916;52.734;6.544;2023-06-19T13:07:26;17.85;;;15.15;;
60038;SDS011;45916;52.734;6.544;2023-06-19T13:09:52;15.95;;;14.43;;
60038;SDS011;45916;52.734;6.544;2023-06-19T13:12:18;16.52;;;13.32;;
60038;SDS011;45916;52.734;6.544;2023-06-19T13:14:44;18.08;;;15.60;;
60038;SDS011;45916;52.734;6.544;2023-06-19T13:17:09;16.83;;;14.02;;
60038;SDS011;45916;52.734;6.544;2023-06-19T13:19:35;16.23;;;12.75;;
60038;SDS011;45916;52.734;6.544;2023-06-19T13:22:01;14.77;;;13.02;;
60038;SDS011;45916;52.734;6.544;2023-06-19T13:24:26;16.10;;;13.77;;
60038;SDS011;45916;52.734;6.544;2023-06-19T13:26:52;15.05;;;13.48;;
60038;SDS011;45916;52.734;6.544;2023-06-19T13:29:19;14.50;;;12.93;;
60038;SDS011;45916;52.734;6.544;2023-06-19T13:31:45;14.65;;;12.98;;
60038;SDS011;45916;52.734;6.544;2023-06-19T13:34:11;15.65;;;13.95;;
60038;SDS011;45916;52.734;6.544;2023-06-19T13:36:36;15.85;;;14.25;;
60038;SDS011;45916;52.734;6.544;2023-06-19T13:39:03;17.95;;;13.32;;
60038;SDS011;45916;52.734;6.544;2023-06-19T13:41:29;15.32;;;13.73;;
60038;SDS011;45916;52.734;6.544;2023-06-19T13:43:57;14.05;;;12.65;;
60038;SDS011;45916;52.734;6.544;2023-06-19T13:46:24;19.83;;;13.85;;
60038;SDS011;45916;52.734;6.544;2023-06-19T13:48:49;16.48;;;14.27;;
60038;SDS011;45916;52.734;6.544;2023-06-19T13:51:20;15.77;;;13.60;;
60038;SDS011;45916;52.734;6.544;2023-06-19T13:53:47;13.55;;;12.18;;
60038;SDS011;45916;52.734;6.544;2023-06-19T13:56:13;13.60;;;10.90;;
60038;SDS011;45916;52.734;6.544;2023-06-19T13:58:40;14.87;;;11.33;;
60038;SDS011;45916;52.734;6.544;2023-06-19T14:01:06;12.40;;;10.45;;
60038;SDS011;45916;52.734;6.544;2023-06-19T14:03:31;13.57;;;12.07;;
60038;SDS011;45916;52.734;6.544;2023-06-19T14:05:57;13.43;;;10.80;;
60038;SDS011;45916;52.734;6.544;2023-06-19T14:08:23;12.68;;;11.25;;
60038;SDS011;45916;52.734;6.544;2023-06-19T14:10:49;13.57;;;11.32;;
60038;SDS011;45916;52.734;6.544;2023-06-19T14:13:15;12.70;;;11.40;;
60038;SDS011;45916;52.734;6.544;2023-06-19T14:15:41;12.13;;;10.63;;
60038;SDS011;45916;52.734;6.544;2023-06-19T14:18:07;13.85;;;10.05;;
60038;SDS011;45916;52.734;6.544;2023-06-19T14:20:33;10.38;;;8.85;;
60038;SDS011;45916;52.734;6.544;2023-06-19T14:22:59;9.88;;;8.35;;
60038;SDS011;45916;52.734;6.544;2023-06-19T14:25:25;8.63;;;6.75;;
60038;SDS011;45916;52.734;6.544;2023-06-19T14:27:51;11.00;;;7.60;;
60038;SDS011;45916;52.734;6.544;2023-06-19T14:30:18;8.68;;;7.57;;
60038;SDS011;45916;52.734;6.544;2023-06-19T14:32:43;10.23;;;6.93;;
60038;SDS011;45916;52.734;6.544;2023-06-19T14:35:10;8.88;;;6.35;;
60038;SDS011;45916;52.734;6.544;2023-06-19T14:37:36;10.35;;;7.50;;
60038;SDS011;45916;52.734;6.544;2023-06-19T14:40:02;9.02;;;7.03;;
60038;SDS011;45916;52.734;6.544;2023-06-19T14:42:28;7.90;;;6.03;;